createdAt,value
2024-01-05T00:00:05.247Z,99886.31
2024-01-05T00:02:35.090Z,99887.97
2024-01-05T00:05:03.038Z,99892.03
2024-01-05T00:07:31.547Z,99891.91
2024-01-05T00:09:59.304Z,99895.22
2024-01-05T00:12:27.347Z,99889.22
2024-01-05T00:14:55.140Z,99882.38
2024-01-05T00:17:22.839Z,99882.72
2024-01-05T00:19:50.766Z,99891.47
2024-01-05T00:22:18.491Z,99895.88
2024-01-05T00:24:46.166Z,99898.47
2024-01-05T00:27:15.366Z,99909.81
2024-01-05T00:29:43.816Z,99915.63
2024-01-05T00:32:17.806Z,99907.88
2024-01-05T00:34:47.778Z,99909.13
2024-01-05T00:37:15.620Z,99912.28
2024-01-05T00:39:43.330Z,99918.09
2024-01-05T00:42:11.449Z,99925.81
2024-01-05T00:44:40.396Z,99924.94
2024-01-05T00:47:08.527Z,99925.13
2024-01-05T00:49:36.606Z,99931.59
2024-01-05T00:52:04.725Z,99926.25
2024-01-05T00:54:32.571Z,99935.62
2024-01-05T00:57:00.603Z,99945.63
2024-01-05T00:59:29.573Z,99949.50
2024-01-05T01:01:58.157Z,99936.31
2024-01-05T01:04:26.242Z,99941.84
2024-01-05T01:06:54.074Z,99950.66
2024-01-05T01:09:21.755Z,99945.31
2024-01-05T01:11:52.511Z,99948.31
2024-01-05T01:14:20.186Z,99947.03
2024-01-05T01:16:47.803Z,99937.44
2024-01-05T01:19:15.943Z,99937.50
2024-01-05T01:21:43.701Z,99932.06
2024-01-05T01:24:11.462Z,99929.34
2024-01-05T01:26:40.203Z,99925.59
2024-01-05T01:29:09.301Z,99924.37
2024-01-05T01:31:37.405Z,99916.53
2024-01-05T01:34:05.517Z,99911.16
2024-01-05T01:36:33.406Z,99915.50
2024-01-05T01:39:01.554Z,99915.38
2024-01-05T01:41:29.545Z,99914.34
2024-01-05T01:43:57.375Z,99912.59
2024-01-05T01:46:25.093Z,99915.19
2024-01-05T01:48:53.227Z,99910.84
2024-01-05T01:51:21.420Z,99913.53
2024-01-05T01:53:49.073Z,99911.94
2024-01-05T01:56:17.112Z,99907.59
2024-01-05T01:58:45.178Z,99895.81
2024-01-05T02:01:13.009Z,99899.84
2024-01-05T02:03:41.248Z,99890.66
2024-01-05T02:06:08.979Z,99899.44
2024-01-05T02:08:36.688Z,99907.75
2024-01-05T02:11:04.710Z,99916.13
2024-01-05T02:13:34.977Z,99916.53
2024-01-05T02:16:02.651Z,99917.37
2024-01-05T02:18:53.213Z,99914.31
2024-01-05T02:21:22.352Z,99909.28
2024-01-05T02:23:50.401Z,99903.31
2024-01-05T02:26:18.172Z,99901.94
2024-01-05T02:28:45.857Z,99914.31
2024-01-05T02:31:17.400Z,99913.34
2024-01-05T02:33:45.507Z,99916.25
2024-01-05T02:36:13.387Z,99909.72
2024-01-05T02:38:41.403Z,99920.25
2024-01-05T02:41:11.049Z,99912.69
2024-01-05T02:43:38.751Z,99914.06
2024-01-05T02:46:10.427Z,99914.22
2024-01-05T02:48:38.234Z,99908.16
2024-01-05T02:51:06.332Z,99931.19
2024-01-05T02:53:34.099Z,99925.94
2024-01-05T02:56:01.820Z,99931.87
2024-01-05T02:58:29.772Z,99930.28
2024-01-05T03:00:57.635Z,99930.03
2024-01-05T03:03:25.520Z,99934.53
2024-01-05T03:05:53.545Z,99926.97
2024-01-05T03:08:21.223Z,99924.56
2024-01-05T03:10:48.937Z,99915.31
2024-01-05T03:13:17.321Z,99906.56
2024-01-05T03:15:45.121Z,99892.00
2024-01-05T03:18:13.522Z,99901.28
2024-01-05T03:20:42.172Z,99912.66
2024-01-05T03:23:09.863Z,99914.81
2024-01-05T03:25:38.421Z,99932.25
2024-01-05T03:28:06.418Z,99922.91
2024-01-05T03:30:34.253Z,99929.75
2024-01-05T03:33:02.189Z,99940.34
2024-01-05T03:35:31.640Z,99927.31
2024-01-05T03:37:59.587Z,99926.72
2024-01-05T03:40:27.300Z,99930.28
2024-01-05T03:42:55.234Z,99926.03
2024-01-05T03:45:22.934Z,99933.78
2024-01-05T03:47:51.342Z,99942.78
2024-01-05T03:50:20.294Z,99946.41
2024-01-05T03:52:48.063Z,99946.47
2024-01-05T03:55:16.238Z,99946.22
2024-01-05T03:57:44.149Z,99961.41
2024-01-05T04:00:12.050Z,99961.03
2024-01-05T04:02:40.147Z,99966.44
2024-01-05T04:05:09.121Z,99966.41
2024-01-05T04:07:40.417Z,99965.38
2024-01-05T04:10:09.210Z,99968.38
2024-01-05T04:12:37.011Z,99974.59
2024-01-05T04:15:05.363Z,99970.44
2024-01-05T04:17:33.539Z,99971.00
2024-01-05T04:20:02.447Z,99960.97
2024-01-05T04:22:32.374Z,99977.84
2024-01-05T04:25:00.412Z,99974.84
2024-01-05T04:27:27.788Z,99968.19
2024-01-05T04:29:55.236Z,99966.12
2024-01-05T04:32:22.782Z,99970.56
2024-01-05T04:34:50.465Z,99983.91
2024-01-05T04:37:17.679Z,99975.09
2024-01-05T04:39:45.218Z,99992.19
2024-01-05T04:42:13.031Z,99981.00
2024-01-05T04:44:41.226Z,99980.81
2024-01-05T04:47:08.666Z,99983.06
2024-01-05T04:49:38.966Z,99981.91
2024-01-05T04:52:06.226Z,99994.88
2024-01-05T04:54:34.211Z,99990.97
2024-01-05T04:57:02.862Z,99985.97
2024-01-05T04:59:30.992Z,99981.50
2024-01-05T05:02:00.268Z,99986.56
2024-01-05T05:04:27.582Z,99975.19
2024-01-05T05:06:55.328Z,99993.13
2024-01-05T05:09:22.874Z,99996.34
2024-01-05T05:11:50.127Z,99995.47
2024-01-05T05:14:17.361Z,99997.19
2024-01-05T05:16:45.747Z,99996.13
2024-01-05T05:19:13.589Z,99995.06
2024-01-05T05:21:40.956Z,100002.78
2024-01-05T05:24:08.530Z,100007.53
2024-01-05T05:26:35.840Z,100004.91
2024-01-05T05:29:03.214Z,99997.97
2024-01-05T05:31:30.708Z,100001.38
2024-01-05T05:33:58.076Z,99999.94
2024-01-05T05:36:27.524Z,99996.06
2024-01-05T05:38:55.508Z,100003.69
2024-01-05T05:41:23.174Z,100001.72
2024-01-05T05:43:50.359Z,100007.72
2024-01-05T05:46:17.884Z,100013.69
2024-01-05T05:48:45.824Z,100014.66
2024-01-05T05:51:13.206Z,100016.94
2024-01-05T05:53:40.601Z,100019.78
2024-01-05T05:56:08.149Z,100022.34
2024-01-05T05:58:35.511Z,100031.72
2024-01-05T06:01:06.255Z,100030.87
2024-01-05T06:03:34.546Z,100030.25
2024-01-05T06:06:04.718Z,100031.53
2024-01-05T06:08:34.581Z,100032.47
2024-01-05T06:11:04.051Z,100022.03
2024-01-05T06:13:38.265Z,100035.38
2024-01-05T06:16:05.784Z,100027.41
2024-01-05T06:18:33.167Z,100032.88
2024-01-05T06:21:04.835Z,100041.66
2024-01-05T06:23:32.695Z,100041.59
2024-01-05T06:25:59.846Z,100052.38
2024-01-05T06:28:28.251Z,100060.66
2024-01-05T06:30:56.206Z,100055.88
2024-01-05T06:33:23.876Z,100052.78
2024-01-05T06:35:51.196Z,100050.47
2024-01-05T06:38:20.986Z,100048.22
2024-01-05T06:40:49.758Z,100051.03
2024-01-05T06:43:16.931Z,100047.63
2024-01-05T06:45:44.454Z,100040.66
2024-01-05T06:48:16.818Z,100039.16
2024-01-05T06:50:44.673Z,100036.66
2024-01-05T06:53:12.869Z,100035.25
2024-01-05T06:55:40.196Z,100037.16
2024-01-05T06:58:09.253Z,100047.81
2024-01-05T07:00:39.316Z,100035.41
2024-01-05T07:03:09.659Z,100044.53
2024-01-05T07:05:39.158Z,100035.16
2024-01-05T07:08:08.885Z,100042.34
2024-01-05T07:10:36.485Z,100040.19
2024-01-05T07:13:06.214Z,100044.06
2024-01-05T07:16:15.987Z,100040.37
2024-01-05T07:18:44.043Z,100037.16
2024-01-05T07:21:11.812Z,100027.94
2024-01-05T07:23:39.033Z,100030.44
2024-01-05T07:26:07.734Z,100030.75
2024-01-05T07:28:34.867Z,100036.81
2024-01-05T07:31:05.470Z,100032.31
2024-01-05T07:33:40.281Z,100024.59
2024-01-05T07:36:07.603Z,100027.94
2024-01-05T07:38:37.903Z,100026.25
2024-01-05T07:41:05.710Z,100024.31
2024-01-05T07:43:32.885Z,100008.09
2024-01-05T07:46:03.571Z,100016.50
2024-01-05T07:48:33.266Z,100009.28
2024-01-05T07:51:05.595Z,100010.66
2024-01-05T07:53:33.103Z,100008.75
2024-01-05T07:56:00.942Z,100012.09
2024-01-05T07:58:28.168Z,100009.13
2024-01-05T08:00:55.411Z,100006.13
2024-01-05T08:03:23.409Z,100017.66
2024-01-05T08:05:50.814Z,100027.28
2024-01-05T08:08:18.449Z,100014.13
2024-01-05T08:10:45.945Z,100021.91
2024-01-05T08:13:13.175Z,100028.84
2024-01-05T08:15:40.464Z,100034.09
2024-01-05T08:18:12.807Z,100033.69
2024-01-05T08:20:40.129Z,100034.38
2024-01-05T08:23:08.717Z,100034.56
2024-01-05T08:25:38.152Z,100034.66
2024-01-05T08:28:05.357Z,100043.50
2024-01-05T08:30:32.905Z,100045.69
2024-01-05T08:33:00.617Z,100058.78
2024-01-05T08:35:27.858Z,100049.63
2024-01-05T08:37:57.125Z,100054.72
2024-01-05T08:40:27.460Z,100045.44
2024-01-05T08:42:55.878Z,100053.47
2024-01-05T08:45:24.145Z,100050.34
2024-01-05T08:48:09.858Z,100041.25
2024-01-05T08:50:37.374Z,100036.09
2024-01-05T08:53:04.884Z,100031.81
2024-01-05T08:55:33.537Z,100043.97
2024-01-05T08:58:03.938Z,100041.44
2024-01-05T09:00:38.275Z,100052.53
2024-01-05T09:03:10.022Z,100061.81
2024-01-05T09:05:38.983Z,100053.69
2024-01-05T09:08:06.491Z,100059.56
2024-01-05T09:10:34.360Z,100056.78
2024-01-05T09:13:01.690Z,100056.53
2024-01-05T09:15:29.435Z,100057.72
2024-01-05T09:17:56.898Z,100056.81
2024-01-05T09:20:24.110Z,100053.94
2024-01-05T09:22:53.539Z,100055.09
2024-01-05T09:25:20.788Z,100060.59
2024-01-05T09:27:50.924Z,100066.41
2024-01-05T09:30:18.564Z,100061.19
2024-01-05T09:32:47.588Z,100052.31
2024-01-05T09:35:15.794Z,100053.06
2024-01-05T09:37:53.170Z,100070.28
2024-01-05T09:40:41.035Z,100058.91
2024-01-05T09:43:28.964Z,100050.37
2024-01-05T09:46:17.380Z,100038.00
2024-01-05T09:49:10.236Z,100034.63
2024-01-05T09:51:58.099Z,100023.19
2024-01-05T09:54:47.233Z,100022.75
2024-01-05T09:57:34.503Z,100008.75
2024-01-05T10:00:22.546Z,99997.88
2024-01-05T10:03:10.520Z,100000.47
2024-01-05T10:06:02.320Z,99995.84
2024-01-05T10:08:54.625Z,100003.22
2024-01-05T10:11:57.426Z,99992.69
2024-01-05T10:14:50.550Z,99999.25
2024-01-05T10:17:38.216Z,99988.69
2024-01-05T10:20:28.112Z,99985.97
2024-01-05T10:23:16.894Z,99970.59
2024-01-05T10:26:09.450Z,99971.88
2024-01-05T10:28:59.191Z,99965.97
2024-01-05T10:31:47.152Z,99967.69
2024-01-05T10:34:36.282Z,99956.75
2024-01-05T10:37:23.790Z,99957.19
2024-01-05T10:40:17.157Z,99961.13
2024-01-05T10:43:16.033Z,99948.06
2024-01-05T10:46:03.707Z,99947.13
2024-01-05T10:48:52.242Z,99928.12
2024-01-05T10:51:42.660Z,99923.72
2024-01-05T10:54:32.002Z,99922.06
2024-01-05T10:57:21.471Z,99915.09
2024-01-05T11:00:10.290Z,99908.84
2024-01-05T11:03:10.530Z,99911.56
2024-01-05T11:05:58.666Z,99919.13
2024-01-05T11:08:53.174Z,99906.53
2024-01-05T11:11:59.942Z,99901.97
2024-01-05T11:14:52.549Z,99890.50
2024-01-05T11:17:50.471Z,99896.53
2024-01-05T11:20:40.771Z,99891.97
2024-01-05T11:23:28.794Z,99899.22
2024-01-05T11:26:31.530Z,99907.41
2024-01-05T11:29:37.957Z,99904.53
2024-01-05T11:32:43.799Z,99907.75
2024-01-05T11:35:42.481Z,99882.97
2024-01-05T11:38:30.549Z,99883.84
2024-01-05T11:41:18.881Z,99869.94
2024-01-05T11:44:27.609Z,99862.56
2024-01-05T11:47:36.079Z,99858.19
2024-01-05T11:50:36.293Z,99867.12
2024-01-05T11:53:25.126Z,99855.78
2024-01-05T11:56:16.101Z,99864.34
2024-01-05T11:59:04.083Z,99866.72
2024-01-05T12:01:56.146Z,99870.78
2024-01-05T12:04:48.066Z,99872.03
2024-01-05T12:07:35.315Z,99868.78
2024-01-05T12:10:26.420Z,99867.00
2024-01-05T12:13:14.083Z,99870.66
2024-01-05T12:16:07.097Z,99870.34
2024-01-05T12:18:56.768Z,99852.84
2024-01-05T12:21:44.696Z,99853.59
2024-01-05T12:24:38.631Z,99854.19
2024-01-05T12:27:26.614Z,99854.00
2024-01-05T12:30:14.359Z,99855.34
2024-01-05T12:33:03.377Z,99847.41
2024-01-05T12:35:53.361Z,99850.50
2024-01-05T12:38:40.877Z,99844.03
2024-01-05T12:41:34.100Z,99836.78
2024-01-05T12:44:21.663Z,99843.59
2024-01-05T12:47:10.766Z,99830.63
2024-01-05T12:49:58.761Z,99827.28
2024-01-05T12:52:46.480Z,99821.56
2024-01-05T12:55:35.754Z,99821.38
2024-01-05T12:58:23.446Z,99809.16
2024-01-05T13:01:18.607Z,99805.00
2024-01-05T13:04:06.869Z,99805.41
2024-01-05T13:06:54.518Z,99809.66
2024-01-05T13:09:42.072Z,99820.34
2024-01-05T13:12:29.715Z,99817.66
2024-01-05T13:15:18.234Z,99812.09
2024-01-05T13:18:07.270Z,99822.47
2024-01-05T13:20:55.112Z,99814.06
2024-01-05T13:23:48.106Z,99822.28
2024-01-05T13:26:35.394Z,99816.66
2024-01-05T13:29:23.342Z,99810.31
2024-01-05T13:32:11.231Z,99800.34
2024-01-05T13:35:01.869Z,99798.56
2024-01-05T13:37:50.688Z,99810.31
2024-01-05T13:40:41.387Z,99794.19
2024-01-05T13:43:31.256Z,99798.00
2024-01-05T13:46:19.891Z,99799.66
2024-01-05T13:49:07.164Z,99800.47
2024-01-05T13:51:54.906Z,99800.44
2024-01-05T13:54:42.647Z,99788.66
2024-01-05T13:57:30.657Z,99791.34
2024-01-05T14:00:28.921Z,99788.63
2024-01-05T14:03:16.926Z,99784.38
2024-01-05T14:06:09.393Z,99777.12
2024-01-05T14:08:57.295Z,99775.16
2024-01-05T14:11:44.889Z,99796.09
2024-01-05T14:14:32.779Z,99791.22
2024-01-05T14:17:20.458Z,99778.63
2024-01-05T14:20:10.982Z,99780.84
2024-01-05T14:23:00.671Z,99780.41
2024-01-05T14:25:51.909Z,99787.13
2024-01-05T14:28:44.455Z,99787.78
2024-01-05T14:31:32.506Z,99786.34
2024-01-05T14:34:19.745Z,99782.16
2024-01-05T14:37:07.798Z,99779.37
2024-01-05T14:39:55.548Z,99772.09
2024-01-05T14:42:45.011Z,99778.31
2024-01-05T14:45:32.797Z,99789.97
2024-01-05T14:48:22.818Z,99786.72
2024-01-05T14:51:11.234Z,99790.81
2024-01-05T14:54:00.313Z,99791.84
2024-01-05T14:56:48.140Z,99787.75
2024-01-05T14:59:45.975Z,99799.78
2024-01-05T15:02:33.737Z,99790.88
2024-01-05T15:05:24.142Z,99798.06
2024-01-05T15:08:15.805Z,99803.59
2024-01-05T15:11:04.024Z,99793.53
2024-01-05T15:13:51.881Z,99798.94
2024-01-05T15:16:41.166Z,99802.87
2024-01-05T15:19:29.456Z,99808.84
2024-01-05T15:22:17.491Z,99810.16
2024-01-05T15:25:07.048Z,99803.84
2024-01-05T15:27:56.208Z,99811.37
2024-01-05T15:30:43.829Z,99805.88
2024-01-05T15:33:32.311Z,99810.81
2024-01-05T15:36:24.757Z,99812.38
2024-01-05T15:39:13.680Z,99805.53
2024-01-05T15:42:01.454Z,99805.88
2024-01-05T15:44:51.215Z,99808.03
2024-01-05T15:47:38.944Z,99803.03
2024-01-05T15:50:27.945Z,99809.19
2024-01-05T15:53:15.168Z,99801.84
2024-01-05T15:56:03.066Z,99809.00
2024-01-05T15:58:56.084Z,99808.41
2024-01-05T16:01:48.393Z,99797.56
2024-01-05T16:04:36.654Z,99797.78
2024-01-05T16:07:24.388Z,99791.12
2024-01-05T16:10:12.385Z,99789.59
2024-01-05T16:13:00.311Z,99805.19
2024-01-05T16:15:47.816Z,99798.28
2024-01-05T16:18:36.745Z,99798.59
2024-01-05T16:21:25.400Z,99805.28
2024-01-05T16:24:14.180Z,99797.97
2024-01-05T16:27:04.112Z,99789.59
2024-01-05T16:29:51.790Z,99790.81
2024-01-05T16:32:42.243Z,99785.88
2024-01-05T16:35:31.778Z,99781.06
2024-01-05T16:38:26.318Z,99792.47
2024-01-05T16:41:15.222Z,99794.87
2024-01-05T16:44:04.507Z,99789.88
2024-01-05T16:46:52.154Z,99795.16
2024-01-05T16:49:41.115Z,99792.66
2024-01-05T16:52:28.853Z,99798.56
2024-01-05T16:55:16.271Z,99799.50
2024-01-05T16:58:03.824Z,99798.66
2024-01-05T17:00:51.983Z,99794.75
2024-01-05T17:03:42.048Z,99797.97
2024-01-05T17:06:30.189Z,99797.00
2024-01-05T17:09:17.855Z,99803.94
2024-01-05T17:12:08.720Z,99791.97
2024-01-05T17:14:56.359Z,99800.12
2024-01-05T17:17:45.262Z,99800.44
2024-01-05T17:20:32.763Z,99793.63
2024-01-05T17:23:20.324Z,99796.72
2024-01-05T17:26:07.984Z,99788.69
2024-01-05T17:29:00.055Z,99792.66
2024-01-05T17:31:52.085Z,99796.72
2024-01-05T17:34:40.317Z,99794.81
2024-01-05T17:37:28.202Z,99800.12
2024-01-05T17:40:16.514Z,99801.28
2024-01-05T17:43:04.461Z,99794.81
2024-01-05T17:45:52.447Z,99793.75
2024-01-05T17:48:40.753Z,99795.41
2024-01-05T17:54:19.948Z,99787.75
2024-01-05T17:57:08.102Z,99783.50
2024-01-05T17:59:36.126Z,99791.03
2024-01-05T18:02:05.776Z,99788.88
2024-01-05T18:04:34.021Z,99784.50
2024-01-05T18:07:04.978Z,99786.25
2024-01-05T18:09:33.639Z,99799.38
2024-01-05T18:12:01.399Z,99802.09
2024-01-05T18:14:29.649Z,99797.47
2024-01-05T18:16:58.620Z,99794.81
2024-01-05T18:19:26.424Z,99800.03
2024-01-05T18:21:57.066Z,99807.44
2024-01-05T18:24:25.134Z,99798.75
2024-01-05T18:26:53.133Z,99795.47
2024-01-05T18:29:28.589Z,99801.47
2024-01-05T18:31:57.632Z,99803.94
2024-01-05T18:34:32.420Z,99812.75
2024-01-05T18:37:00.235Z,99809.34
2024-01-05T18:39:27.584Z,99810.81
2024-01-05T18:41:57.739Z,99814.34
2024-01-05T18:44:25.215Z,99810.09
2024-01-05T18:46:55.505Z,99805.16
2024-01-05T18:49:23.006Z,99811.22
2024-01-05T18:51:53.253Z,99813.16
2024-01-05T18:54:20.506Z,99805.97
2024-01-05T18:56:48.820Z,99805.97
2024-01-05T18:59:16.288Z,99802.56
2024-01-05T19:01:46.832Z,99800.78
2024-01-05T19:04:14.335Z,99795.47
2024-01-05T19:06:46.150Z,99803.56
2024-01-05T19:09:14.522Z,99795.75
2024-01-05T19:11:43.831Z,99806.59
2024-01-05T19:14:11.700Z,99811.09
2024-01-05T19:16:43.407Z,99809.47
2024-01-05T19:19:12.724Z,99805.22
2024-01-05T19:21:49.904Z,99802.56
2024-01-05T19:24:24.990Z,99800.28
2024-01-05T19:26:53.422Z,99802.19
2024-01-05T19:29:20.953Z,99802.25
2024-01-05T19:31:48.978Z,99802.37
2024-01-05T19:34:16.546Z,99800.78
2024-01-05T19:36:44.594Z,99790.47
2024-01-05T19:39:14.686Z,99804.41
2024-01-05T19:41:45.520Z,99799.81
2024-01-05T19:44:17.078Z,99786.06
2024-01-05T19:46:46.235Z,99783.56
2024-01-05T19:49:14.340Z,99778.97
2024-01-05T19:51:48.196Z,99779.19
2024-01-05T19:54:17.366Z,99772.50
2024-01-05T19:56:46.613Z,99777.66
2024-01-05T19:59:13.814Z,99778.78
2024-01-05T20:01:46.428Z,99773.47
2024-01-05T20:04:17.018Z,99769.97
2024-01-05T20:06:49.360Z,99775.69
2024-01-05T20:09:17.294Z,99772.72
2024-01-05T20:11:45.719Z,99771.87
2024-01-05T20:14:13.802Z,99771.69
2024-01-05T20:16:43.004Z,99765.53
2024-01-05T20:19:31.125Z,99767.06
2024-01-05T20:21:59.615Z,99764.16
2024-01-05T20:24:26.911Z,99761.50
2024-01-05T20:26:54.234Z,99761.94
2024-01-05T20:29:22.324Z,99763.03
2024-01-05T20:31:51.490Z,99757.37
2024-01-05T20:34:19.762Z,99755.59
2024-01-05T20:36:47.556Z,99756.81
2024-01-05T20:39:15.300Z,99756.28
2024-01-05T20:41:43.047Z,99756.13
2024-01-05T20:44:13.645Z,99765.69
2024-01-05T20:46:42.141Z,99758.78
2024-01-05T20:49:10.784Z,99743.97
2024-01-05T20:51:38.277Z,99739.50
2024-01-05T20:54:07.697Z,99739.56
2024-01-05T20:56:34.933Z,99735.34
2024-01-05T20:59:03.529Z,99729.75
2024-01-05T21:01:30.733Z,99731.28
2024-01-05T21:03:58.492Z,99729.81
2024-01-05T21:06:27.524Z,99729.72
2024-01-05T21:08:54.728Z,99730.72
2024-01-05T21:11:25.170Z,99719.59
2024-01-05T21:13:57.563Z,99715.81
2024-01-05T21:16:25.064Z,99720.34
2024-01-05T21:18:53.198Z,99720.59
2024-01-05T21:21:23.880Z,99720.22
2024-01-05T21:23:51.201Z,99719.41
2024-01-05T21:26:18.668Z,99711.87
2024-01-05T21:28:47.152Z,99724.75
2024-01-05T21:31:15.410Z,99719.59
2024-01-05T21:33:45.375Z,99713.53
2024-01-05T21:36:19.666Z,99719.63
2024-01-05T21:38:49.642Z,99711.97
2024-01-05T21:41:17.258Z,99707.88
2024-01-05T21:43:46.972Z,99708.28
2024-01-05T21:46:15.553Z,99702.84
2024-01-05T21:48:54.440Z,99709.13
2024-01-05T21:51:23.892Z,99703.06
2024-01-05T21:53:51.122Z,99698.53
2024-01-05T21:56:18.815Z,99688.06
2024-01-05T21:58:46.701Z,99694.28
2024-01-05T22:01:14.631Z,99696.84
2024-01-05T22:03:42.389Z,99697.78
2024-01-05T22:06:15.070Z,99685.62
2024-01-05T22:08:42.826Z,99688.22
2024-01-05T22:11:10.060Z,99683.19
2024-01-05T22:13:37.215Z,99684.72
2024-01-05T22:16:04.838Z,99678.94
2024-01-05T22:18:37.925Z,99673.03
2024-01-05T22:21:11.852Z,99674.16
2024-01-05T22:23:41.640Z,99666.56
2024-01-05T22:26:09.695Z,99663.66
2024-01-05T22:28:37.614Z,99654.53
2024-01-05T22:31:11.743Z,99655.38
2024-01-05T22:33:40.190Z,99650.53
2024-01-05T22:36:11.418Z,99647.88
2024-01-05T22:38:39.735Z,99646.81
2024-01-05T22:41:11.053Z,99646.12
2024-01-05T22:43:39.483Z,99646.12
2024-01-05T22:46:07.612Z,99636.66
2024-01-05T22:48:36.607Z,99644.78
2024-01-05T22:51:05.738Z,99641.34
2024-01-05T22:53:33.542Z,99638.19
2024-01-05T22:56:01.405Z,99640.16
2024-01-05T22:58:29.373Z,99629.97
2024-01-05T23:00:57.147Z,99628.19
2024-01-05T23:03:24.486Z,99627.09
2024-01-05T23:05:52.015Z,99631.34
2024-01-05T23:08:23.201Z,99631.81
2024-01-05T23:10:52.470Z,99623.41
2024-01-05T23:13:19.701Z,99618.66
2024-01-05T23:15:47.172Z,99615.97
2024-01-05T23:18:14.858Z,99622.59
2024-01-05T23:20:42.660Z,99617.63
2024-01-05T23:23:11.008Z,99618.91
2024-01-05T23:25:38.581Z,99621.97
2024-01-05T23:28:05.999Z,99622.25
2024-01-05T23:30:33.203Z,99622.09
2024-01-05T23:33:00.806Z,99605.37
2024-01-05T23:35:28.117Z,99608.31
2024-01-05T23:37:56.041Z,99603.38
2024-01-05T23:40:23.604Z,99609.06
2024-01-05T23:42:50.836Z,99597.37
2024-01-05T23:45:19.063Z,99600.03
2024-01-05T23:47:46.678Z,99599.75
2024-01-05T23:50:13.984Z,99593.69
2024-01-05T23:52:41.173Z,99596.87
2024-01-05T23:55:08.896Z,99589.13
2024-01-05T23:57:37.128Z,99593.38
